Hesn

Original price of. Start Now

2023-01-28
    فوائد التين المجفف مع زيت الزيتون فيتامين د
  1. ♥ SAVE CHANGES
  2. Archives
  3. Browse more top brands including Samsung and TracFone
  4. The application will be reviewed by the sponsoring
  5. Your airport search results are below
  6. 87 / E32°49
  7. HEBL 020500Z 35003KT CAVOK 32/06 Q1009 NOSIG
  8. Aswan International Airport, Aswan, Phone